createdAt,value
2022-10-17T00:00:46.988Z,13.57
2022-10-17T00:03:13.540Z,13.54
2022-10-17T00:05:43.040Z,13.52
2022-10-17T00:08:10.240Z,13.48
2022-10-17T00:10:37.066Z,13.42
2022-10-17T00:13:04.311Z,13.36
2022-10-17T00:15:30.709Z,13.31
2022-10-17T00:17:57.130Z,13.26
2022-10-17T00:20:23.810Z,13.24
2022-10-17T00:22:50.492Z,13.24
2022-10-17T00:25:17.536Z,13.24
2022-10-17T00:27:44.915Z,13.25
2022-10-17T00:30:14.787Z,13.25
2022-10-17T00:32:41.330Z,13.22
2022-10-17T00:35:09.126Z,13.20
2022-10-17T00:37:35.505Z,13.17
2022-10-17T00:40:01.935Z,13.14
2022-10-17T00:42:28.918Z,13.12
2022-10-17T00:45:29.498Z,13.10
2022-10-17T00:48:01.017Z,13.06
2022-10-17T00:50:28.358Z,13.03
2022-10-17T00:53:00.032Z,13.00
2022-10-17T00:55:30.933Z,12.99
2022-10-17T00:58:00.239Z,12.97
2022-10-17T01:00:26.848Z,12.98
2022-10-17T01:02:53.609Z,12.97
2022-10-17T01:05:21.306Z,12.98
2022-10-17T01:07:50.700Z,12.98
2022-10-17T01:10:17.502Z,12.96
2022-10-17T01:13:08.480Z,12.95
2022-10-17T01:15:59.758Z,12.94
2022-10-17T01:18:57.345Z,12.92
2022-10-17T01:22:01.711Z,12.91
2022-10-17T01:24:48.143Z,12.87
2022-10-17T01:27:42.309Z,12.82
2022-10-17T01:30:50.746Z,12.79
2022-10-17T01:33:31.072Z,12.75
2022-10-17T01:36:20.587Z,12.71
2022-10-17T01:38:56.994Z,12.68
2022-10-17T01:41:51.525Z,12.64
2022-10-17T01:44:19.902Z,12.61
2022-10-17T01:46:59.742Z,12.58
2022-10-17T01:49:29.274Z,12.57
2022-10-17T01:52:11.627Z,12.54
2022-10-17T01:54:50.032Z,12.55
2022-10-17T01:57:49.421Z,12.55
2022-10-17T02:00:20.864Z,12.57
2022-10-17T02:02:49.397Z,12.59
2022-10-17T02:05:19.521Z,12.61
2022-10-17T02:07:45.893Z,12.62
2022-10-17T02:10:26.206Z,12.63
2022-10-17T02:13:11.638Z,12.64
2022-10-17T02:15:59.812Z,12.63
2022-10-17T02:18:32.248Z,12.60
2022-10-17T02:21:27.152Z,12.58
2022-10-17T02:24:12.795Z,12.55
2022-10-17T02:27:17.745Z,12.52
2022-10-17T02:29:54.387Z,12.49
2022-10-17T02:32:26.675Z,12.45
2022-10-17T02:34:56.309Z,12.42
2022-10-17T02:37:28.079Z,12.40
2022-10-17T02:39:57.630Z,12.39
2022-10-17T02:42:26.391Z,12.39
2022-10-17T02:44:57.559Z,12.40
2022-10-17T02:47:37.891Z,12.40
2022-10-17T02:50:04.859Z,12.40
2022-10-17T02:52:46.612Z,12.39
2022-10-17T02:55:20.397Z,12.35
2022-10-17T02:57:54.078Z,12.30
2022-10-17T03:00:22.550Z,12.27
2022-10-17T03:02:51.397Z,12.25
2022-10-17T03:05:23.922Z,12.23
2022-10-17T03:07:50.630Z,12.20
2022-10-17T03:10:18.120Z,12.18
2022-10-17T03:12:44.554Z,12.15
2022-10-17T03:15:11.714Z,12.12
2022-10-17T03:17:38.778Z,12.08
2022-10-17T03:20:07.159Z,12.06
2022-10-17T03:22:33.988Z,12.05
2022-10-17T03:25:02.691Z,12.05
2022-10-17T03:27:29.318Z,12.06
2022-10-17T03:29:55.887Z,12.08
2022-10-17T03:32:22.357Z,12.09
2022-10-17T03:34:48.720Z,12.10
2022-10-17T03:37:15.129Z,12.10
2022-10-17T03:39:41.487Z,12.12
2022-10-17T03:42:07.872Z,12.13
2022-10-17T03:44:34.247Z,12.14
2022-10-17T03:47:01.944Z,12.15
2022-10-17T03:49:28.335Z,12.14
2022-10-17T03:51:54.718Z,12.14
2022-10-17T03:54:22.788Z,12.14
2022-10-17T03:56:49.247Z,12.16
2022-10-17T03:59:16.286Z,12.17
2022-10-17T04:01:43.017Z,12.17
2022-10-17T04:04:10.152Z,12.20
2022-10-17T04:06:37.780Z,12.21
2022-10-17T04:09:05.939Z,12.22
2022-10-17T04:11:32.421Z,12.23
2022-10-17T04:13:59.738Z,12.22
2022-10-17T04:16:27.024Z,12.21
2022-10-17T04:18:58.706Z,12.18
2022-10-17T04:21:27.042Z,12.16
2022-10-17T04:23:58.606Z,12.14
2022-10-17T04:26:25.992Z,12.13
2022-10-17T04:28:52.596Z,12.13
2022-10-17T04:31:20.253Z,12.13
2022-10-17T04:33:48.364Z,12.13
2022-10-17T04:36:18.569Z,12.15
2022-10-17T04:38:45.667Z,12.16
2022-10-17T04:41:18.290Z,12.17
2022-10-17T04:43:48.461Z,12.19
2022-10-17T04:46:17.755Z,12.22
2022-10-17T04:48:44.810Z,12.24
2022-10-17T04:51:14.823Z,12.27
2022-10-17T04:53:42.653Z,12.29
2022-10-17T04:56:20.252Z,12.31
2022-10-17T04:58:47.709Z,12.32
2022-10-17T05:01:17.349Z,12.34
2022-10-17T05:03:44.797Z,12.36
2022-10-17T05:06:23.201Z,12.39
2022-10-17T05:08:50.263Z,12.42
2022-10-17T05:11:18.254Z,12.46
2022-10-17T05:13:46.836Z,12.48
2022-10-17T05:16:13.274Z,12.50
2022-10-17T05:18:39.661Z,12.52
2022-10-17T05:21:06.447Z,12.53
2022-10-17T05:23:32.923Z,12.54
2022-10-17T05:25:59.385Z,12.55
2022-10-17T05:28:25.804Z,12.57
2022-10-17T05:30:54.511Z,12.59
2022-10-17T05:33:22.988Z,12.61
2022-10-17T05:35:49.663Z,12.62
2022-10-17T05:38:16.050Z,12.63
2022-10-17T05:40:42.750Z,12.64
2022-10-17T05:43:09.379Z,12.66
2022-10-17T05:45:36.221Z,12.67
2022-10-17T05:48:03.495Z,12.67
2022-10-17T05:50:29.926Z,12.69
2022-10-17T05:52:56.318Z,12.71
2022-10-17T05:55:23.722Z,12.75
2022-10-17T05:57:52.795Z,12.79
2022-10-17T06:00:20.248Z,12.84
2022-10-17T06:02:47.487Z,12.89
2022-10-17T06:05:17.135Z,12.96
2022-10-17T06:07:44.419Z,13.02
2022-10-17T06:10:13.308Z,13.12
2022-10-17T06:12:39.712Z,13.23
2022-10-17T06:15:06.677Z,13.34
2022-10-17T06:17:33.067Z,13.45
2022-10-17T06:19:59.467Z,13.54
2022-10-17T06:22:25.919Z,13.61
2022-10-17T06:24:54.965Z,13.70
2022-10-17T06:27:22.668Z,13.79
2022-10-17T06:29:50.938Z,13.86
2022-10-17T06:32:17.617Z,13.93
2022-10-17T06:34:44.005Z,14.00
2022-10-17T06:37:10.394Z,14.07
2022-10-17T06:39:36.865Z,14.16
2022-10-17T06:42:04.119Z,14.26
2022-10-17T06:44:32.142Z,14.37
2022-10-17T06:47:01.729Z,14.49
2022-10-17T06:49:28.597Z,14.64
2022-10-17T06:51:55.043Z,14.80
2022-10-17T06:54:21.586Z,14.96
2022-10-17T06:56:47.985Z,15.13
2022-10-17T06:59:15.629Z,15.28
2022-10-17T07:01:44.664Z,15.42
2022-10-17T07:04:13.839Z,15.59
2022-10-17T07:06:40.342Z,15.75
2022-10-17T07:09:07.049Z,15.88
2022-10-17T07:11:35.061Z,16.00
2022-10-17T07:14:02.358Z,16.11
2022-10-17T07:16:29.222Z,16.22
2022-10-17T07:18:56.059Z,16.30
2022-10-17T07:21:22.559Z,16.39
2022-10-17T07:23:48.936Z,16.48
2022-10-17T07:26:16.715Z,16.57
2022-10-17T07:28:45.541Z,16.68
2022-10-17T07:31:14.997Z,16.78
2022-10-17T07:33:42.683Z,16.90
2022-10-17T07:36:09.604Z,17.05
2022-10-17T07:38:36.613Z,17.20
2022-10-17T07:41:07.032Z,17.34
2022-10-17T07:43:36.234Z,17.48
2022-10-17T07:46:05.884Z,17.61
2022-10-17T07:48:32.589Z,17.73
2022-10-17T07:51:03.226Z,17.86
2022-10-17T07:53:29.622Z,18.00
2022-10-17T07:55:56.047Z,18.13
2022-10-17T07:58:22.417Z,18.23
2022-10-17T08:00:49.389Z,18.30
2022-10-17T08:03:15.899Z,18.36
2022-10-17T08:05:42.383Z,18.40
2022-10-17T08:08:08.781Z,18.44
2022-10-17T08:10:35.335Z,18.48
2022-10-17T08:13:01.745Z,18.52
2022-10-17T08:15:31.701Z,18.55
2022-10-17T08:17:59.070Z,18.62
2022-10-17T08:20:25.955Z,18.71
2022-10-17T08:22:55.468Z,18.80
2022-10-17T08:25:22.802Z,18.91
2022-10-17T08:27:50.084Z,19.00
2022-10-17T08:30:17.052Z,19.14
2022-10-17T08:32:43.948Z,19.27
2022-10-17T08:35:10.807Z,19.40
2022-10-17T08:37:37.239Z,19.51
2022-10-17T08:40:07.003Z,19.64
2022-10-17T08:42:54.200Z,19.76
2022-10-17T08:45:29.815Z,19.85
2022-10-17T08:48:04.388Z,19.96
2022-10-17T08:50:40.386Z,20.06
2022-10-17T08:53:36.430Z,20.13
2022-10-17T08:56:48.134Z,20.16
2022-10-17T08:59:23.045Z,20.24
2022-10-17T09:01:55.512Z,20.24
2022-10-17T09:04:50.646Z,20.29
2022-10-17T09:07:30.320Z,20.32
2022-10-17T09:10:18.671Z,20.38
2022-10-17T09:13:31.070Z,20.42
2022-10-17T09:16:12.856Z,20.45
2022-10-17T09:18:43.004Z,20.51
2022-10-17T09:21:47.430Z,20.52
2022-10-17T09:24:49.571Z,20.56
2022-10-17T09:27:41.400Z,20.58
2022-10-17T09:30:40.022Z,20.63
2022-10-17T09:33:53.343Z,20.68
2022-10-17T09:36:32.043Z,20.72
2022-10-17T09:39:02.412Z,20.80
2022-10-17T09:41:46.613Z,20.84
2022-10-17T09:44:26.015Z,20.92
2022-10-17T09:47:09.007Z,20.99
2022-10-17T09:49:41.140Z,21.04
2022-10-17T09:52:33.483Z,21.12
2022-10-17T09:55:04.382Z,21.27
2022-10-17T09:57:52.735Z,21.39
2022-10-17T10:00:28.129Z,21.47
2022-10-17T10:03:22.475Z,21.57
2022-10-17T10:06:04.347Z,21.70
2022-10-17T10:08:49.639Z,21.86
2022-10-17T10:11:17.718Z,22.00
2022-10-17T10:13:46.481Z,22.08
2022-10-17T10:16:33.570Z,22.10
2022-10-17T10:19:00.057Z,22.09
2022-10-17T10:21:27.886Z,22.10
2022-10-17T10:24:05.222Z,22.29
2022-10-17T10:26:40.094Z,22.45
2022-10-17T10:29:24.950Z,22.60
2022-10-17T10:31:53.363Z,22.69
2022-10-17T10:34:24.685Z,22.75
2022-10-17T10:36:58.129Z,22.87
2022-10-17T10:39:43.126Z,23.03
2022-10-17T10:42:22.380Z,23.12
2022-10-17T10:44:50.482Z,23.23
2022-10-17T10:47:22.257Z,23.31
2022-10-17T10:49:52.813Z,23.42
2022-10-17T10:52:32.842Z,23.50
2022-10-17T10:55:28.315Z,23.56
2022-10-17T10:58:00.232Z,23.64
2022-10-17T11:00:31.257Z,23.70
2022-10-17T11:03:12.637Z,23.80
2022-10-17T11:05:51.381Z,23.84
2022-10-17T11:08:34.499Z,23.85
2022-10-17T11:11:03.948Z,23.87
2022-10-17T11:13:37.902Z,23.92
2022-10-17T11:16:14.694Z,23.99
2022-10-17T11:18:49.104Z,24.05
2022-10-17T11:21:39.161Z,24.05
2022-10-17T11:24:27.491Z,23.96
2022-10-17T11:27:01.108Z,24.01
2022-10-17T11:29:33.295Z,24.06
2022-10-17T11:32:24.604Z,24.19
2022-10-17T11:34:56.090Z,24.51
2022-10-17T11:37:28.074Z,24.72
2022-10-17T11:40:06.202Z,24.75
2022-10-17T11:42:53.212Z,24.65
2022-10-17T11:45:23.877Z,24.46
2022-10-17T11:48:06.245Z,24.24
2022-10-17T11:53:28.687Z,23.99
2022-10-17T11:55:59.272Z,23.87
2022-10-17T11:58:54.917Z,23.94
2022-10-17T12:01:38.045Z,23.96
2022-10-17T12:04:10.579Z,23.92
2022-10-17T12:06:51.651Z,23.92
2022-10-17T12:09:34.978Z,23.97
2022-10-17T12:12:03.292Z,24.00
2022-10-17T12:14:46.534Z,23.98
2022-10-17T12:17:33.917Z,24.00
2022-10-17T12:20:25.838Z,23.98
2022-10-17T12:23:04.159Z,24.02
2022-10-17T12:28:46.735Z,24.07
2022-10-17T12:31:16.220Z,23.99
2022-10-17T12:33:52.213Z,23.89
2022-10-17T12:36:18.563Z,23.79
2022-10-17T12:39:01.482Z,23.69
2022-10-17T12:41:40.628Z,23.63
2022-10-17T12:44:28.255Z,23.61
2022-10-17T12:47:05.615Z,23.58
2022-10-17T12:49:44.225Z,23.59
2022-10-17T12:52:16.274Z,23.61
2022-10-17T12:55:10.836Z,23.69
2022-10-17T12:58:03.978Z,23.81
2022-10-17T13:01:19.121Z,23.95
2022-10-17T13:03:46.613Z,24.10
2022-10-17T13:06:22.809Z,24.22
2022-10-17T13:09:01.007Z,24.27
2022-10-17T13:11:33.783Z,24.19
2022-10-17T13:14:03.324Z,24.04
2022-10-17T13:16:35.945Z,23.95
2022-10-17T13:19:13.952Z,23.83
2022-10-17T13:21:50.168Z,23.69
2022-10-17T13:24:29.675Z,23.52
2022-10-17T13:26:56.601Z,23.40
2022-10-17T13:29:25.691Z,23.27
2022-10-17T13:32:01.024Z,23.18
2022-10-17T13:34:28.392Z,23.07
2022-10-17T13:36:57.968Z,23.00
2022-10-17T13:39:44.878Z,22.93
2022-10-17T13:42:27.676Z,22.91
2022-10-17T13:44:55.775Z,22.94
2022-10-17T13:47:33.979Z,23.04
2022-10-17T13:50:09.457Z,23.11
2022-10-17T13:52:43.150Z,23.11
2022-10-17T13:55:17.582Z,23.10
2022-10-17T13:57:44.177Z,23.06
2022-10-17T14:00:22.801Z,22.99
2022-10-17T14:02:49.253Z,22.91
2022-10-17T14:05:20.638Z,22.86
2022-10-17T14:08:12.715Z,22.82
2022-10-17T14:10:42.281Z,22.80
2022-10-17T14:13:26.048Z,22.75
2022-10-17T14:15:59.152Z,22.72
2022-10-17T14:18:36.779Z,22.68
2022-10-17T14:24:11.716Z,22.66
2022-10-17T14:26:53.998Z,22.64
2022-10-17T14:29:21.814Z,22.61
2022-10-17T14:31:50.601Z,22.60
2022-10-17T14:34:25.328Z,22.61
2022-10-17T14:36:53.590Z,22.63
2022-10-17T14:39:23.309Z,22.63
2022-10-17T14:41:51.464Z,22.63
2022-10-17T14:44:24.511Z,22.62
2022-10-17T14:46:59.191Z,22.58
2022-10-17T14:49:49.779Z,22.54
2022-10-17T14:52:18.320Z,22.49
2022-10-17T14:54:47.503Z,22.48
2022-10-17T14:57:33.395Z,22.47
2022-10-17T15:00:00.305Z,22.44
2022-10-17T15:02:29.198Z,22.39
2022-10-17T15:04:56.086Z,22.35
2022-10-17T15:07:23.664Z,22.33
2022-10-17T15:09:52.170Z,22.31
2022-10-17T15:12:22.675Z,22.26
2022-10-17T15:14:49.073Z,22.19
2022-10-17T15:17:30.114Z,22.12
2022-10-17T15:19:58.078Z,22.06
2022-10-17T15:22:25.158Z,21.99
2022-10-17T15:24:51.660Z,21.93
2022-10-17T15:27:21.185Z,21.88
2022-10-17T15:29:48.485Z,21.83
2022-10-17T15:32:15.164Z,21.79
2022-10-17T15:34:42.298Z,21.74
2022-10-17T15:37:25.236Z,21.67
2022-10-17T15:39:54.582Z,21.56
2022-10-17T15:42:26.195Z,21.52
2022-10-17T15:44:52.639Z,21.47
2022-10-17T15:47:33.333Z,21.43
2022-10-17T15:50:04.004Z,21.39
2022-10-17T15:52:30.527Z,21.36
2022-10-17T15:54:59.514Z,21.33
2022-10-17T15:57:36.089Z,21.30
2022-10-17T16:00:02.712Z,21.26
2022-10-17T16:02:29.197Z,21.24
2022-10-17T16:04:55.574Z,21.21
2022-10-17T16:07:22.071Z,21.16
2022-10-17T16:09:48.491Z,21.14
2022-10-17T16:12:18.925Z,21.11
2022-10-17T16:14:45.530Z,21.08
2022-10-17T16:17:16.736Z,21.07
2022-10-17T16:19:43.950Z,21.05
2022-10-17T16:22:41.898Z,21.01
2022-10-17T16:25:22.588Z,20.96
2022-10-17T16:27:53.597Z,20.92
2022-10-17T16:32:55.141Z,20.83
2022-10-17T16:35:33.352Z,20.80
2022-10-17T16:38:04.071Z,20.77
2022-10-17T16:40:30.421Z,20.74
2022-10-17T16:42:57.292Z,20.71
2022-10-17T16:45:23.843Z,20.69
2022-10-17T16:47:50.691Z,20.65
2022-10-17T16:50:17.320Z,20.60
2022-10-17T16:52:43.696Z,20.54
2022-10-17T16:55:10.957Z,20.49
2022-10-17T16:57:37.382Z,20.46
2022-10-17T17:00:07.748Z,20.45
2022-10-17T17:02:34.384Z,20.44
2022-10-17T17:05:00.929Z,20.41
2022-10-17T17:07:30.460Z,20.39
2022-10-17T17:09:57.247Z,20.36
2022-10-17T17:12:23.705Z,20.35
2022-10-17T17:14:50.146Z,20.34
2022-10-17T17:17:30.189Z,20.32
2022-10-17T17:20:03.432Z,20.32
2022-10-17T17:22:29.890Z,20.31
2022-10-17T17:24:56.350Z,20.30
2022-10-17T17:27:25.005Z,20.27
2022-10-17T17:29:51.366Z,20.24
2022-10-17T17:32:17.750Z,20.22
2022-10-17T17:34:44.140Z,20.20
2022-10-17T17:37:11.011Z,20.18
2022-10-17T17:39:37.479Z,20.15
2022-10-17T17:42:04.351Z,20.12
2022-10-17T17:44:31.883Z,20.09
2022-10-17T17:46:58.241Z,20.07
2022-10-17T17:49:24.622Z,20.04
2022-10-17T17:51:51.126Z,20.01
2022-10-17T17:54:17.537Z,19.98
2022-10-17T17:56:43.974Z,19.95
2022-10-17T17:59:16.837Z,19.91
2022-10-17T18:01:43.697Z,19.86
2022-10-17T18:04:11.806Z,19.80
2022-10-17T18:06:39.087Z,19.72
2022-10-17T18:09:06.831Z,19.64
2022-10-17T18:11:33.808Z,19.56
2022-10-17T18:14:03.258Z,19.50
2022-10-17T18:16:31.246Z,19.44
2022-10-17T18:19:02.600Z,19.41
2022-10-17T18:21:32.273Z,19.36
2022-10-17T18:24:00.103Z,19.33
2022-10-17T18:26:27.310Z,19.30
2022-10-17T18:28:54.054Z,19.26
2022-10-17T18:31:25.100Z,19.23
2022-10-17T18:33:53.356Z,19.19
2022-10-17T18:36:20.183Z,19.15
2022-10-17T18:38:47.095Z,19.10
2022-10-17T18:41:17.330Z,19.06
2022-10-17T18:43:45.468Z,19.03
2022-10-17T18:46:15.067Z,19.01
2022-10-17T18:48:46.682Z,18.98
2022-10-17T18:51:15.594Z,18.95
2022-10-17T18:53:44.173Z,18.92
2022-10-17T18:56:11.791Z,18.90
2022-10-17T18:58:39.778Z,18.86
2022-10-17T19:01:15.262Z,18.81
2022-10-17T19:03:43.189Z,18.75
2022-10-17T19:06:11.774Z,18.69
2022-10-17T19:08:38.931Z,18.62
2022-10-17T19:11:26.062Z,18.55
2022-10-17T19:13:53.173Z,18.45
2022-10-17T19:16:26.375Z,18.38
2022-10-17T19:18:56.492Z,18.30
2022-10-17T19:21:24.006Z,18.26
2022-10-17T19:23:55.442Z,18.21
2022-10-17T19:26:23.440Z,18.17
2022-10-17T19:28:53.309Z,18.14
2022-10-17T19:31:26.229Z,18.11
2022-10-17T19:33:54.210Z,18.08
2022-10-17T19:36:22.294Z,18.04
2022-10-17T19:38:49.594Z,18.00
2022-10-17T19:41:16.639Z,17.99
2022-10-17T19:43:44.039Z,17.97
2022-10-17T19:46:17.728Z,17.96
2022-10-17T19:48:44.673Z,17.93
2022-10-17T19:51:14.445Z,17.90
2022-10-17T19:53:42.117Z,17.88
2022-10-17T19:56:09.517Z,17.85
2022-10-17T19:58:43.710Z,17.83
2022-10-17T20:01:11.781Z,17.80
2022-10-17T20:03:38.261Z,17.78
2022-10-17T20:06:04.793Z,17.74
2022-10-17T20:08:31.368Z,17.73
2022-10-17T20:11:03.427Z,17.72
2022-10-17T20:13:29.986Z,17.72
2022-10-17T20:15:57.459Z,17.69
2022-10-17T20:18:24.849Z,17.68
2022-10-17T20:20:51.239Z,17.66
2022-10-17T20:23:17.800Z,17.65
2022-10-17T20:25:44.234Z,17.65
2022-10-17T20:28:10.832Z,17.65
2022-10-17T20:30:37.313Z,17.65
2022-10-17T20:33:03.756Z,17.65
2022-10-17T20:35:30.168Z,17.65
2022-10-17T20:37:57.019Z,17.63
2022-10-17T20:40:34.569Z,17.60
2022-10-17T20:43:03.379Z,17.59
2022-10-17T20:45:43.821Z,17.58
2022-10-17T20:48:16.505Z,17.57
2022-10-17T20:50:44.120Z,17.57
2022-10-17T20:53:35.611Z,17.56
2022-10-17T20:56:06.945Z,17.56
2022-10-17T20:58:33.521Z,17.57
2022-10-17T21:01:06.383Z,17.58
2022-10-17T21:03:37.073Z,17.61
2022-10-17T21:06:05.476Z,17.61
2022-10-17T21:08:31.928Z,17.61
2022-10-17T21:11:16.155Z,17.60
2022-10-17T21:13:43.515Z,17.59
2022-10-17T21:16:12.981Z,17.60
2022-10-17T21:18:39.947Z,17.61
2022-10-17T21:21:12.489Z,17.59
2022-10-17T21:23:41.367Z,17.59
2022-10-17T21:26:09.376Z,17.59
2022-10-17T21:28:37.615Z,17.58
2022-10-17T21:31:27.653Z,17.59
2022-10-17T21:33:58.946Z,17.59
2022-10-17T21:36:26.752Z,17.59
2022-10-17T21:38:54.859Z,17.60
2022-10-17T21:41:23.795Z,17.57
2022-10-17T21:43:58.811Z,17.56
2022-10-17T21:46:25.606Z,17.53
2022-10-17T21:48:52.142Z,17.50
2022-10-17T21:51:21.611Z,17.48
2022-10-17T21:53:49.107Z,17.44
2022-10-17T21:56:18.488Z,17.43
2022-10-17T21:58:45.692Z,17.43
2022-10-17T22:01:23.928Z,17.45
2022-10-17T22:03:52.841Z,17.46
2022-10-17T22:09:17.289Z,17.42
2022-10-17T22:11:50.306Z,17.41
2022-10-17T22:14:19.385Z,17.39
2022-10-17T22:16:46.891Z,17.39
2022-10-17T22:19:16.483Z,17.38
2022-10-17T22:21:44.396Z,17.37
2022-10-17T22:24:12.737Z,17.33
2022-10-17T22:26:40.613Z,17.32
2022-10-17T22:29:08.265Z,17.31
2022-10-17T22:31:36.594Z,17.29
2022-10-17T22:34:05.158Z,17.27
2022-10-17T22:36:32.263Z,17.25
2022-10-17T22:39:00.988Z,17.24
2022-10-17T22:41:27.364Z,17.22
2022-10-17T22:43:53.753Z,17.17
2022-10-17T22:46:20.338Z,17.13
2022-10-17T22:48:46.793Z,17.11
2022-10-17T22:51:13.680Z,17.11
2022-10-17T22:53:40.457Z,17.13
2022-10-17T22:56:13.401Z,17.14
2022-10-17T22:58:40.439Z,17.12
2022-10-17T23:01:08.951Z,17.11
2022-10-17T23:03:35.929Z,17.07
2022-10-17T23:06:03.084Z,17.04
2022-10-17T23:08:29.521Z,17.02
2022-10-17T23:10:56.071Z,17.02
2022-10-17T23:15:55.986Z,16.97
2022-10-17T23:18:23.952Z,16.96
2022-10-17T23:20:50.771Z,16.95
2022-10-17T23:23:17.517Z,16.93
2022-10-17T23:25:44.859Z,16.92
2022-10-17T23:28:12.116Z,16.92
2022-10-17T23:30:39.394Z,16.92
2022-10-17T23:33:06.634Z,16.91
2022-10-17T23:35:33.870Z,16.89
2022-10-17T23:38:00.246Z,16.89
2022-10-17T23:40:28.073Z,16.88
2022-10-17T23:42:54.574Z,16.86
2022-10-17T23:45:21.069Z,16.84
2022-10-17T23:47:47.524Z,16.83
2022-10-17T23:50:13.931Z,16.81
2022-10-17T23:52:40.294Z,16.81
2022-10-17T23:55:07.728Z,16.81
2022-10-17T23:57:34.399Z,16.80
